KOKC

Will Rogers World Airport

Oklahoma City, Oklahoma, USA
KOKC 181724Z 1818/1918 17007KT P6SM BKN150 FM182300 13008KT P6SM SCT250
Issued Valid From Valid To
Jul-18 @ 17:24 UTC
(5 hours ago)
Jul-18 @ 18:00 UTC
(4 hours ago)
Jul-19 @ 18:00 UTC
(in 20 hours)
Jul-18 @ 18:00 to Jul-18 @ 23:00
KOKC 181724Z 1818/1918 17007KT P6SM BKN150
Wind Visibility Clouds
170° at 7 knots Greater than 6 miles
  • Broken at 15,000' AGL
From Jul-18 @ 23:00 to Jul-19 @ 18:00
FM182300 13008KT P6SM SCT250
Wind Visibility Clouds
130° at 8 knots Greater than 6 miles
  • Scattered at 25,000' AGL
KOKC 181724Z 1818/1918 17007KT P6SM BKN150 FM182300 13008KT P6SM SCT250
Issued Jul-18 @ 17:24 UTC
(5 hours ago)
Valid From Jul-18 @ 18:00 UTC
(4 hours ago)
Valid To Jul-19 @ 18:00 UTC
(in 20 hours)
Jul-18 @ 18:00 - Jul-18 @ 23:00
Wind Visibility
170° at 7 knots Greater than 6 miles
Clouds
  • Broken at 15,000' AGL
From Jul-18 @ 23:00 - Jul-19 @ 18:00
Wind Visibility
130° at 8 knots Greater than 6 miles
Clouds
  • Scattered at 25,000' AGL